createdAt,value
2023-03-03T00:00:10.548Z,99515.78
2023-03-03T00:00:42.604Z,99508.88
2023-03-03T00:01:15.540Z,99507.16
2023-03-03T00:01:47.320Z,99509.63
2023-03-03T00:02:19.110Z,99515.72
2023-03-03T00:02:50.987Z,99517.38
2023-03-03T00:03:26.084Z,99516.47
2023-03-03T00:03:57.882Z,99512.78
2023-03-03T00:04:29.601Z,99510.31
2023-03-03T00:05:01.332Z,99515.66
2023-03-03T00:05:34.259Z,99506.13
2023-03-03T00:06:09.188Z,99517.56
2023-03-03T00:06:40.898Z,99520.94
2023-03-03T00:07:12.820Z,99519.16
2023-03-03T00:07:45.472Z,99519.97
2023-03-03T00:08:18.938Z,99520.88
2023-03-03T00:08:51.239Z,99522.56
2023-03-03T00:09:23.028Z,99520.81
2023-03-03T00:09:54.839Z,99512.91
2023-03-03T00:10:26.670Z,99522.47
2023-03-03T00:11:00.892Z,99520.00
2023-03-03T00:11:32.858Z,99520.00
2023-03-03T00:12:29.905Z,99523.56
2023-03-03T00:13:02.161Z,99520.88
2023-03-03T00:13:39.487Z,99518.34
2023-03-03T00:14:23.930Z,99512.28
2023-03-03T00:14:56.549Z,99520.19
2023-03-03T00:15:30.476Z,99513.22
2023-03-03T00:16:26.670Z,99522.91
2023-03-03T00:17:01.973Z,99521.09
2023-03-03T00:17:34.486Z,99514.91
2023-03-03T00:18:19.090Z,99514.09
2023-03-03T00:18:51.865Z,99514.91
2023-03-03T00:19:24.512Z,99514.91
2023-03-03T00:19:56.682Z,99520.22
2023-03-03T00:20:40.313Z,99514.91
2023-03-03T00:21:25.865Z,99515.94
2023-03-03T00:21:58.647Z,99503.81
2023-03-03T00:22:36.462Z,99508.13
2023-03-03T00:23:35.561Z,99508.94
2023-03-03T00:24:16.973Z,99506.41
2023-03-03T00:24:49.931Z,99514.22
2023-03-03T00:25:34.705Z,99514.38
2023-03-03T00:26:23.292Z,99500.38
2023-03-03T00:26:57.347Z,99512.56
2023-03-03T00:27:38.570Z,99501.88
2023-03-03T00:28:30.572Z,99511.53
2023-03-03T00:29:20.129Z,99507.16
2023-03-03T00:29:58.240Z,99508.22
2023-03-03T00:30:30.000Z,99503.81
2023-03-03T00:31:12.745Z,99497.91
2023-03-03T00:31:44.714Z,99502.03
2023-03-03T00:32:36.241Z,99502.16
2023-03-03T00:33:28.081Z,99502.94
2023-03-03T00:34:20.321Z,99496.88
2023-03-03T00:34:54.974Z,99498.44
2023-03-03T00:35:30.773Z,99496.84
2023-03-03T00:36:28.832Z,99498.38
2023-03-03T00:37:00.594Z,99496.63
2023-03-03T00:37:36.024Z,99498.44
2023-03-03T00:38:35.275Z,99496.63
2023-03-03T00:39:22.401Z,99492.31
2023-03-03T00:39:54.554Z,99492.19
2023-03-03T00:40:35.611Z,99493.91
2023-03-03T00:41:28.110Z,99496.66
2023-03-03T00:42:00.744Z,99478.31
2023-03-03T00:42:36.298Z,99490.44
2023-03-03T00:43:24.862Z,99490.31
2023-03-03T00:43:56.609Z,99491.25
2023-03-03T00:44:48.769Z,99486.69
2023-03-03T00:45:39.817Z,99482.41
2023-03-03T00:46:19.121Z,99489.44
2023-03-03T00:46:50.916Z,99480.72
2023-03-03T00:47:37.893Z,99481.66
2023-03-03T00:48:35.650Z,99488.63
2023-03-03T00:49:26.690Z,99480.91
2023-03-03T00:50:07.505Z,99479.81
2023-03-03T00:50:40.395Z,99481.53
2023-03-03T00:51:14.742Z,99478.78
2023-03-03T00:51:46.523Z,99485.91
2023-03-03T00:52:20.769Z,99479.69
2023-03-03T00:53:02.023Z,99481.38
2023-03-03T00:53:33.825Z,99480.56
2023-03-03T00:54:05.536Z,99476.09
2023-03-03T00:54:37.305Z,99481.31
2023-03-03T00:55:09.085Z,99480.44
2023-03-03T00:55:41.021Z,99475.16
2023-03-03T00:56:12.823Z,99473.50
2023-03-03T00:56:44.727Z,99479.66
2023-03-03T00:57:16.549Z,99476.03
2023-03-03T00:57:48.311Z,99477.81
2023-03-03T00:58:21.986Z,99466.50
2023-03-03T00:58:54.362Z,99475.13
2023-03-03T00:59:26.181Z,99477.63
2023-03-03T00:59:57.982Z,99475.00
2023-03-03T01:00:30.782Z,99474.13
2023-03-03T01:01:03.581Z,99479.41
2023-03-03T01:01:35.357Z,99479.38
2023-03-03T01:02:07.607Z,99478.38
2023-03-03T01:02:39.472Z,99480.97
2023-03-03T01:03:17.811Z,99472.19
2023-03-03T01:03:49.853Z,99477.47
2023-03-03T01:04:21.603Z,99476.50
2023-03-03T01:04:56.464Z,99472.19
2023-03-03T01:05:28.589Z,99468.69
2023-03-03T01:06:00.396Z,99468.06
2023-03-03T01:06:32.136Z,99469.72
2023-03-03T01:07:03.939Z,99475.00
2023-03-03T01:07:35.705Z,99466.13
2023-03-03T01:08:07.778Z,99468.97
2023-03-03T01:08:39.857Z,99476.97
2023-03-03T01:09:11.573Z,99473.28
2023-03-03T01:09:43.580Z,99468.97
2023-03-03T01:10:15.417Z,99452.38
2023-03-03T01:10:53.219Z,99459.34
2023-03-03T01:11:28.684Z,99462.91
2023-03-03T01:12:00.952Z,99461.13
2023-03-03T01:12:32.890Z,99463.81
2023-03-03T01:13:06.531Z,99461.19
2023-03-03T01:13:41.835Z,99462.91
2023-03-03T01:14:13.834Z,99459.34
2023-03-03T01:14:46.042Z,99460.19
2023-03-03T01:15:18.248Z,99459.47
2023-03-03T01:15:50.768Z,99461.94
2023-03-03T01:16:22.671Z,99459.41
2023-03-03T01:16:54.455Z,99457.63
2023-03-03T01:17:26.311Z,99459.41
2023-03-03T01:17:58.247Z,99457.63
2023-03-03T01:18:30.706Z,99457.81
2023-03-03T01:19:02.803Z,99456.03
2023-03-03T01:19:35.041Z,99450.75
2023-03-03T01:20:13.840Z,99452.41
2023-03-03T01:20:46.303Z,99449.84
2023-03-03T01:21:18.238Z,99449.78
2023-03-03T01:21:50.004Z,99448.84
2023-03-03T01:22:21.773Z,99448.84
2023-03-03T01:22:53.695Z,99448.16
2023-03-03T01:23:25.769Z,99442.13
2023-03-03T01:23:57.570Z,99450.78
2023-03-03T01:24:29.455Z,99439.38
2023-03-03T01:25:03.532Z,99441.94
2023-03-03T01:25:35.748Z,99441.84
2023-03-03T01:26:07.798Z,99439.22
2023-03-03T01:26:39.682Z,99444.38
2023-03-03T01:27:11.453Z,99443.50
2023-03-03T01:27:43.178Z,99446.06
2023-03-03T01:28:14.949Z,99441.69
2023-03-03T01:28:46.724Z,99445.94
2023-03-03T01:29:18.516Z,99442.44
2023-03-03T01:29:50.358Z,99440.81
2023-03-03T01:30:22.407Z,99440.88
2023-03-03T01:30:54.309Z,99442.72
2023-03-03T01:31:27.079Z,99442.72
2023-03-03T01:31:58.917Z,99434.03
2023-03-03T01:32:30.758Z,99445.47
2023-03-03T01:33:02.800Z,99441.00
2023-03-03T01:33:36.098Z,99436.66
2023-03-03T01:34:08.125Z,99442.75
2023-03-03T01:34:39.856Z,99429.56
2023-03-03T01:35:12.415Z,99436.59
2023-03-03T01:35:46.359Z,99430.53
2023-03-03T01:36:24.407Z,99440.19
2023-03-03T01:36:56.150Z,99433.16
2023-03-03T01:37:27.902Z,99427.06
2023-03-03T01:37:59.625Z,99436.69
2023-03-03T01:38:31.538Z,99430.53
2023-03-03T01:39:03.693Z,99437.56
2023-03-03T01:39:35.450Z,99434.94
2023-03-03T01:40:33.050Z,99428.84
2023-03-03T01:41:05.417Z,99432.34
2023-03-03T01:41:37.286Z,99428.78
2023-03-03T01:42:09.365Z,99430.56
2023-03-03T01:42:41.181Z,99429.78
2023-03-03T01:43:16.087Z,99427.06
2023-03-03T01:43:50.512Z,99429.66
2023-03-03T01:44:22.329Z,99424.53
2023-03-03T01:45:21.248Z,99434.22
2023-03-03T01:45:53.924Z,99425.44
2023-03-03T01:47:05.326Z,99424.53
2023-03-03T01:47:37.174Z,99425.44
2023-03-03T01:48:18.871Z,99429.84
2023-03-03T01:48:55.115Z,99422.94
2023-03-03T01:49:34.783Z,99419.50
2023-03-03T01:50:28.633Z,99421.94
2023-03-03T01:51:09.851Z,99433.31
2023-03-03T01:52:02.854Z,99427.06
2023-03-03T01:52:38.839Z,99421.78
2023-03-03T01:53:17.673Z,99422.69
2023-03-03T01:54:01.445Z,99427.22
2023-03-03T01:54:41.869Z,99420.38
2023-03-03T01:55:23.239Z,99415.88
2023-03-03T01:55:55.152Z,99424.66
2023-03-03T01:56:27.193Z,99413.38
2023-03-03T01:57:05.797Z,99408.97
2023-03-03T01:57:44.298Z,99413.28
2023-03-03T01:58:25.862Z,99413.28
2023-03-03T01:59:20.164Z,99414.13
2023-03-03T01:59:55.514Z,99409.75
2023-03-03T02:00:28.603Z,99408.84
2023-03-03T02:01:05.081Z,99411.47
2023-03-03T02:01:37.397Z,99411.53
2023-03-03T02:02:09.915Z,99409.75
2023-03-03T02:02:43.930Z,99408.03
2023-03-03T02:03:15.677Z,99406.31
2023-03-03T02:03:47.620Z,99409.91
2023-03-03T02:04:19.744Z,99409.88
2023-03-03T02:04:51.663Z,99414.22
2023-03-03T02:05:23.591Z,99413.38
2023-03-03T02:06:00.969Z,99408.22
2023-03-03T02:06:44.718Z,99413.28
2023-03-03T02:07:18.791Z,99402.13
2023-03-03T02:07:51.673Z,99414.41
2023-03-03T02:08:37.151Z,99410.09
2023-03-03T02:09:20.823Z,99414.41
2023-03-03T02:10:12.300Z,99420.66
2023-03-03T02:10:46.265Z,99412.66
2023-03-03T02:11:21.262Z,99417.91
2023-03-03T02:11:59.548Z,99415.38
2023-03-03T02:12:48.455Z,99415.41
2023-03-03T02:13:20.295Z,99421.69
2023-03-03T02:13:52.210Z,99420.75
2023-03-03T02:14:25.619Z,99423.44
2023-03-03T02:14:57.501Z,99418.19
2023-03-03T02:15:32.439Z,99420.75
2023-03-03T02:16:04.604Z,99424.19
2023-03-03T02:16:36.470Z,99422.44
2023-03-03T02:17:08.427Z,99422.31
2023-03-03T02:17:40.190Z,99416.06
2023-03-03T02:18:16.134Z,99420.41
2023-03-03T02:18:48.026Z,99420.53
2023-03-03T02:19:33.414Z,99421.44
2023-03-03T02:20:20.557Z,99426.56
2023-03-03T02:20:52.269Z,99424.72
2023-03-03T02:21:28.852Z,99421.19
2023-03-03T02:22:02.407Z,99419.56
2023-03-03T02:22:50.668Z,99426.56
2023-03-03T02:23:53.316Z,99430.06
2023-03-03T02:24:51.150Z,99424.78
2023-03-03T02:25:34.506Z,99422.34
2023-03-03T02:26:06.584Z,99424.25
2023-03-03T02:26:41.461Z,99425.81
2023-03-03T02:27:14.682Z,99424.88
2023-03-03T02:27:46.451Z,99424.03
2023-03-03T02:28:18.547Z,99428.28
2023-03-03T02:28:52.118Z,99432.69
2023-03-03T02:29:23.904Z,99427.47
2023-03-03T02:29:55.651Z,99419.66
2023-03-03T02:30:27.798Z,99426.47
2023-03-03T02:31:01.077Z,99429.13
2023-03-03T02:31:33.267Z,99424.66
2023-03-03T02:32:05.357Z,99421.91
2023-03-03T02:32:37.287Z,99421.00
2023-03-03T02:33:09.058Z,99434.19
2023-03-03T02:33:43.408Z,99424.66
2023-03-03T02:34:15.252Z,99428.03
2023-03-03T02:34:51.674Z,99427.13
2023-03-03T02:35:33.542Z,99422.16
2023-03-03T02:36:05.777Z,99435.03
2023-03-03T02:36:39.553Z,99434.94
2023-03-03T02:37:11.240Z,99429.69
2023-03-03T02:37:43.652Z,99425.34
2023-03-03T02:38:25.485Z,99424.41
2023-03-03T02:39:00.160Z,99428.84
2023-03-03T02:39:31.905Z,99423.63
2023-03-03T02:40:04.560Z,99420.13
2023-03-03T02:40:43.870Z,99423.75
2023-03-03T02:41:51.350Z,99422.88
2023-03-03T02:42:29.806Z,99415.88
2023-03-03T02:43:06.307Z,99422.88
2023-03-03T02:44:24.803Z,99409.00
2023-03-03T02:44:56.568Z,99420.28
2023-03-03T02:45:28.402Z,99419.38
2023-03-03T02:46:00.188Z,99420.28
2023-03-03T02:46:43.778Z,99423.00
2023-03-03T02:47:15.580Z,99415.94
2023-03-03T02:47:51.509Z,99421.28
2023-03-03T02:48:23.337Z,99419.44
2023-03-03T02:48:55.082Z,99414.31
2023-03-03T02:49:32.792Z,99423.00
2023-03-03T02:50:04.957Z,99423.00
2023-03-03T02:50:37.750Z,99421.28
2023-03-03T02:51:09.463Z,99417.81
2023-03-03T02:51:42.182Z,99422.19
2023-03-03T02:52:15.014Z,99423.09
2023-03-03T02:52:46.858Z,99421.28
2023-03-03T02:53:18.638Z,99415.31
2023-03-03T02:53:50.358Z,99419.78
2023-03-03T02:54:24.850Z,99417.94
2023-03-03T02:54:56.608Z,99426.66
2023-03-03T02:55:28.378Z,99421.44
2023-03-03T02:56:00.141Z,99418.00
2023-03-03T02:56:32.428Z,99419.72
2023-03-03T02:57:05.359Z,99422.22
2023-03-03T02:57:37.107Z,99429.31
2023-03-03T02:58:08.919Z,99424.03
2023-03-03T02:58:40.657Z,99420.47
2023-03-03T02:59:12.832Z,99422.19
2023-03-03T02:59:44.756Z,99421.19
2023-03-03T03:00:16.698Z,99417.81
2023-03-03T03:00:48.558Z,99426.66
2023-03-03T03:01:20.721Z,99422.34
2023-03-03T03:01:52.875Z,99416.22
2023-03-03T03:02:24.627Z,99424.88
2023-03-03T03:02:56.423Z,99411.88
2023-03-03T03:03:28.248Z,99413.69
2023-03-03T03:04:00.052Z,99417.19
2023-03-03T03:04:32.008Z,99414.59
2023-03-03T03:05:04.012Z,99409.56
2023-03-03T03:05:35.793Z,99407.78
2023-03-03T03:06:07.956Z,99412.16
2023-03-03T03:06:40.942Z,99412.16
2023-03-03T03:07:12.724Z,99412.19
2023-03-03T03:07:44.478Z,99405.28
2023-03-03T03:08:16.202Z,99411.50
2023-03-03T03:08:47.961Z,99411.50
2023-03-03T03:09:21.799Z,99408.81
2023-03-03T03:09:53.576Z,99413.28
2023-03-03T03:10:25.399Z,99405.47
2023-03-03T03:10:57.601Z,99409.84
2023-03-03T03:11:29.364Z,99414.22
2023-03-03T03:12:02.627Z,99407.28
2023-03-03T03:12:34.499Z,99415.81
2023-03-03T03:13:06.275Z,99414.97
2023-03-03T03:13:38.060Z,99410.53
2023-03-03T03:14:11.954Z,99418.44
2023-03-03T03:14:43.862Z,99406.19
2023-03-03T03:15:16.051Z,99402.78
2023-03-03T03:15:47.830Z,99403.66
2023-03-03T03:16:19.893Z,99408.31
2023-03-03T03:16:52.464Z,99405.72
2023-03-03T03:17:24.286Z,99410.72
2023-03-03T03:17:56.560Z,99409.72
2023-03-03T03:18:28.806Z,99407.03
2023-03-03T03:19:01.938Z,99408.84
2023-03-03T03:19:33.673Z,99406.31
2023-03-03T03:20:05.920Z,99409.81
2023-03-03T03:20:40.218Z,99411.44
2023-03-03T03:21:14.025Z,99404.53
2023-03-03T03:21:45.773Z,99415.81
2023-03-03T03:22:17.490Z,99408.06
2023-03-03T03:22:49.340Z,99407.22
2023-03-03T03:23:22.126Z,99415.81
2023-03-03T03:23:53.837Z,99416.69
2023-03-03T03:24:25.586Z,99414.91
2023-03-03T03:24:57.674Z,99412.28
2023-03-03T03:25:29.383Z,99414.09
2023-03-03T03:26:01.138Z,99413.19
2023-03-03T03:26:32.940Z,99409.69
2023-03-03T03:27:04.696Z,99421.94
2023-03-03T03:27:36.433Z,99416.56
2023-03-03T03:28:09.019Z,99415.66
2023-03-03T03:28:40.958Z,99414.78
2023-03-03T03:29:12.696Z,99412.34
2023-03-03T03:29:44.524Z,99420.09
2023-03-03T03:30:16.538Z,99414.78
2023-03-03T03:30:48.415Z,99415.69
2023-03-03T03:31:21.068Z,99412.31
2023-03-03T03:31:52.849Z,99416.69
2023-03-03T03:32:24.644Z,99411.50
2023-03-03T03:32:56.499Z,99415.94
2023-03-03T03:33:28.644Z,99408.97
2023-03-03T03:34:00.696Z,99412.44
2023-03-03T03:34:32.451Z,99418.50
2023-03-03T03:35:04.491Z,99413.34
2023-03-03T03:35:38.164Z,99401.78
2023-03-03T03:36:10.857Z,99412.31
2023-03-03T03:36:43.187Z,99410.66
2023-03-03T03:37:15.565Z,99411.41
2023-03-03T03:37:47.318Z,99410.44
2023-03-03T03:38:19.162Z,99401.03
2023-03-03T03:38:50.904Z,99404.66
2023-03-03T03:39:22.623Z,99410.66
2023-03-03T03:39:54.643Z,99414.13
2023-03-03T03:40:27.009Z,99415.06
2023-03-03T03:40:59.526Z,99410.59
2023-03-03T03:41:31.318Z,99407.16
2023-03-03T03:42:03.170Z,99419.25
2023-03-03T03:42:34.933Z,99412.28
2023-03-03T03:43:06.981Z,99414.91
2023-03-03T03:43:38.902Z,99406.06
2023-03-03T03:44:10.739Z,99409.53
2023-03-03T03:44:42.592Z,99413.06
2023-03-03T03:45:15.368Z,99412.19
2023-03-03T03:45:47.234Z,99412.34
2023-03-03T03:46:19.020Z,99402.69
2023-03-03T03:46:50.839Z,99411.50
2023-03-03T03:47:22.633Z,99414.22
2023-03-03T03:47:54.381Z,99408.81
2023-03-03T03:48:26.543Z,99407.94
2023-03-03T03:48:58.305Z,99407.03
2023-03-03T03:49:30.130Z,99413.97
2023-03-03T03:50:02.039Z,99405.28
2023-03-03T03:50:33.956Z,99408.19
2023-03-03T03:51:06.191Z,99403.69
2023-03-03T03:51:41.441Z,99406.22
2023-03-03T03:52:13.262Z,99411.41
2023-03-03T03:52:45.190Z,99414.03
2023-03-03T03:53:18.375Z,99407.78
2023-03-03T03:53:50.147Z,99414.78
2023-03-03T03:54:21.965Z,99404.25
2023-03-03T03:54:53.776Z,99406.19
2023-03-03T03:55:25.553Z,99400.94
2023-03-03T03:55:57.618Z,99401.03
2023-03-03T03:56:29.374Z,99408.94
2023-03-03T03:57:01.281Z,99401.03
2023-03-03T03:57:33.131Z,99401.81
2023-03-03T03:58:04.972Z,99399.25
2023-03-03T03:58:36.811Z,99408.84
2023-03-03T03:59:09.395Z,99400.03
2023-03-03T03:59:41.248Z,99397.41
2023-03-03T04:00:13.427Z,99400.00
2023-03-03T04:00:46.375Z,99412.31
2023-03-03T04:01:18.181Z,99411.34
2023-03-03T04:01:50.261Z,99397.47
2023-03-03T04:02:22.275Z,99413.97
2023-03-03T04:02:54.243Z,99403.44
2023-03-03T04:03:27.409Z,99407.75
2023-03-03T04:03:59.276Z,99404.38
2023-03-03T04:04:31.188Z,99401.63
2023-03-03T04:05:03.538Z,99406.03
2023-03-03T04:05:35.404Z,99407.69
2023-03-03T04:06:07.149Z,99408.66
2023-03-03T04:06:38.927Z,99394.72
2023-03-03T04:07:11.711Z,99420.00
2023-03-03T04:07:43.784Z,99403.50
2023-03-03T04:08:15.514Z,99412.09
2023-03-03T04:08:47.285Z,99406.75
2023-03-03T04:09:19.119Z,99412.09
2023-03-03T04:09:51.173Z,99408.69
2023-03-03T04:10:23.012Z,99408.78
2023-03-03T04:10:54.943Z,99405.31
2023-03-03T04:11:26.723Z,99399.13
2023-03-03T04:11:58.480Z,99413.03
2023-03-03T04:12:30.277Z,99411.44
2023-03-03T04:13:02.038Z,99402.69
2023-03-03T04:13:35.375Z,99416.59
2023-03-03T04:14:07.913Z,99409.63
2023-03-03T04:14:39.693Z,99407.09
2023-03-03T04:15:14.539Z,99408.03
2023-03-03T04:15:46.440Z,99407.94
2023-03-03T04:16:18.194Z,99409.63
2023-03-03T04:16:50.079Z,99406.03
2023-03-03T04:17:25.072Z,99403.53
2023-03-03T04:17:56.929Z,99412.31
2023-03-03T04:18:28.737Z,99413.19
2023-03-03T04:19:00.692Z,99414.91
2023-03-03T04:19:32.474Z,99409.69
2023-03-03T04:20:06.028Z,99413.03
2023-03-03T04:20:39.693Z,99416.56
2023-03-03T04:21:13.410Z,99415.66
2023-03-03T04:21:45.120Z,99412.03
2023-03-03T04:22:16.864Z,99418.19
2023-03-03T04:22:48.717Z,99419.19
2023-03-03T04:23:21.256Z,99409.56
2023-03-03T04:23:53.460Z,99413.97
2023-03-03T04:24:25.249Z,99420.06
2023-03-03T04:24:56.985Z,99415.66
2023-03-03T04:25:28.772Z,99412.09
2023-03-03T04:26:00.547Z,99419.03
2023-03-03T04:26:32.530Z,99419.94
2023-03-03T04:27:04.477Z,99409.44
2023-03-03T04:27:37.501Z,99409.44
2023-03-03T04:28:10.782Z,99419.19
2023-03-03T04:28:42.634Z,99414.72
2023-03-03T04:29:14.370Z,99414.72
2023-03-03T04:29:46.200Z,99412.31
2023-03-03T04:30:18.080Z,99416.59
2023-03-03T04:30:49.845Z,99411.41
2023-03-03T04:31:21.813Z,99411.50
2023-03-03T04:31:53.635Z,99414.03
2023-03-03T04:32:25.786Z,99408.84
2023-03-03T04:32:57.616Z,99415.84
2023-03-03T04:33:29.387Z,99414.03
2023-03-03T04:34:01.103Z,99413.22
2023-03-03T04:34:33.049Z,99404.56
2023-03-03T04:35:08.405Z,99409.84
2023-03-03T04:35:40.791Z,99402.84
2023-03-03T04:36:12.833Z,99413.34
2023-03-03T04:36:44.535Z,99416.09
2023-03-03T04:37:16.233Z,99415.06
2023-03-03T04:37:48.004Z,99409.81
2023-03-03T04:38:20.172Z,99412.47
2023-03-03T04:38:51.980Z,99414.38
2023-03-03T04:39:23.816Z,99416.13
2023-03-03T04:39:55.588Z,99415.19
2023-03-03T04:40:28.042Z,99410.75
2023-03-03T04:40:59.799Z,99415.06
2023-03-03T04:41:31.639Z,99413.22
2023-03-03T04:42:03.653Z,99412.44
2023-03-03T04:42:36.278Z,99412.34
2023-03-03T04:43:09.477Z,99408.06
2023-03-03T04:43:41.923Z,99414.03
2023-03-03T04:44:13.818Z,99405.44
2023-03-03T04:44:46.907Z,99420.19
2023-03-03T04:45:18.764Z,99414.91
2023-03-03T04:45:50.556Z,99412.16
2023-03-03T04:46:22.471Z,99420.09
2023-03-03T04:46:54.232Z,99417.47
2023-03-03T04:47:25.980Z,99413.22
2023-03-03T04:47:57.751Z,99412.44
2023-03-03T04:48:29.626Z,99413.94
2023-03-03T04:49:01.454Z,99427.97
2023-03-03T04:49:33.210Z,99416.50
2023-03-03T04:50:06.299Z,99416.56
2023-03-03T04:50:38.182Z,99419.19
2023-03-03T04:51:10.070Z,99406.19
2023-03-03T04:51:41.802Z,99412.47
2023-03-03T04:52:13.531Z,99413.22
2023-03-03T04:52:45.328Z,99412.34
2023-03-03T04:53:17.270Z,99405.31
2023-03-03T04:53:48.997Z,99410.44
2023-03-03T04:54:20.925Z,99407.78
2023-03-03T04:54:52.701Z,99406.94
2023-03-03T04:55:24.539Z,99411.28
2023-03-03T04:55:56.348Z,99410.38
2023-03-03T04:56:30.105Z,99412.16
2023-03-03T04:57:01.972Z,99407.94
2023-03-03T04:57:33.796Z,99409.56
2023-03-03T04:58:05.980Z,99418.28
2023-03-03T04:58:37.777Z,99411.28
2023-03-03T04:59:09.599Z,99416.56
2023-03-03T04:59:41.401Z,99410.38
2023-03-03T05:00:14.374Z,99417.47
2023-03-03T05:00:56.741Z,99409.72
2023-03-03T05:01:28.542Z,99413.34
2023-03-03T05:02:00.316Z,99409.84
2023-03-03T05:02:32.138Z,99414.25
2023-03-03T05:03:03.998Z,99407.28
2023-03-03T05:03:35.777Z,99414.31
2023-03-03T05:04:08.164Z,99411.63
2023-03-03T05:04:40.114Z,99409.09
2023-03-03T05:05:13.733Z,99416.09
2023-03-03T05:05:47.690Z,99404.72
2023-03-03T05:06:19.881Z,99412.56
2023-03-03T05:06:51.800Z,99407.38
2023-03-03T05:07:24.656Z,99407.56
2023-03-03T05:07:56.382Z,99407.56
2023-03-03T05:08:28.211Z,99411.03
2023-03-03T05:08:59.978Z,99410.28
2023-03-03T05:09:31.864Z,99391.94
2023-03-03T05:10:04.009Z,99407.63
2023-03-03T05:10:35.815Z,99412.06
2023-03-03T05:11:07.674Z,99410.34
2023-03-03T05:11:39.469Z,99407.72
2023-03-03T05:12:11.349Z,99409.53
2023-03-03T05:12:44.198Z,99412.91
2023-03-03T05:13:17.255Z,99406.81
2023-03-03T05:13:49.105Z,99399.72
2023-03-03T05:14:20.946Z,99410.22
2023-03-03T05:14:52.962Z,99405.06
2023-03-03T05:15:24.756Z,99402.56
2023-03-03T05:15:57.545Z,99399.06
2023-03-03T05:16:29.867Z,99411.13
2023-03-03T05:17:02.337Z,99405.81
2023-03-03T05:17:34.086Z,99404.91
2023-03-03T05:18:06.808Z,99410.94
2023-03-03T05:18:39.116Z,99413.47
2023-03-03T05:19:11.024Z,99410.75
2023-03-03T05:19:42.967Z,99408.03
2023-03-03T05:20:14.951Z,99401.03
2023-03-03T05:20:46.784Z,99407.16
2023-03-03T05:21:18.567Z,99408.84
2023-03-03T05:21:50.319Z,99407.00
2023-03-03T05:22:22.015Z,99407.91
2023-03-03T05:22:54.938Z,99407.03
2023-03-03T05:23:26.681Z,99402.53
2023-03-03T05:23:58.424Z,99403.28
2023-03-03T05:24:30.313Z,99405.03
2023-03-03T05:25:02.034Z,99410.44
2023-03-03T05:25:33.798Z,99407.94
2023-03-03T05:26:05.646Z,99414.03
2023-03-03T05:26:37.962Z,99405.38
2023-03-03T05:27:09.920Z,99405.44
2023-03-03T05:27:42.049Z,99406.41
2023-03-03T05:28:14.030Z,99408.31
2023-03-03T05:28:46.188Z,99406.47
2023-03-03T05:29:18.445Z,99410.88
2023-03-03T05:29:50.500Z,99396.03
2023-03-03T05:30:22.329Z,99407.44
2023-03-03T05:30:54.177Z,99407.38
2023-03-03T05:31:27.387Z,99406.41
2023-03-03T05:31:59.267Z,99396.78
2023-03-03T05:32:31.068Z,99407.09
2023-03-03T05:33:03.903Z,99408.84
2023-03-03T05:33:35.876Z,99405.38
2023-03-03T05:34:07.736Z,99405.56
2023-03-03T05:34:39.621Z,99409.16
2023-03-03T05:35:11.864Z,99403.81
2023-03-03T05:35:44.610Z,99412.44
2023-03-03T05:36:16.448Z,99407.03
2023-03-03T05:36:48.256Z,99404.66
2023-03-03T05:37:20.036Z,99409.72
2023-03-03T05:37:52.809Z,99401.94
2023-03-03T05:38:25.535Z,99400.16
2023-03-03T05:38:57.270Z,99407.22
2023-03-03T05:39:29.564Z,99406.41
2023-03-03T05:40:01.413Z,99405.47
2023-03-03T05:40:33.594Z,99401.06
2023-03-03T05:41:05.436Z,99410.06
2023-03-03T05:41:37.238Z,99399.53
2023-03-03T05:42:09.318Z,99402.16
2023-03-03T05:42:41.386Z,99401.47
2023-03-03T05:43:13.297Z,99400.66
2023-03-03T05:43:45.038Z,99404.91
2023-03-03T05:44:18.247Z,99403.34
2023-03-03T05:44:51.449Z,99394.72
2023-03-03T05:45:24.477Z,99395.59
2023-03-03T05:45:57.405Z,99398.06
2023-03-03T05:46:29.409Z,99399.91
2023-03-03T05:47:01.237Z,99401.72
2023-03-03T05:47:33.051Z,99401.84
2023-03-03T05:48:05.063Z,99395.81
2023-03-03T05:48:36.904Z,99401.72
2023-03-03T05:49:08.908Z,99395.66
2023-03-03T05:49:40.696Z,99394.69
2023-03-03T05:50:12.495Z,99400.75
2023-03-03T05:50:44.248Z,99406.97
2023-03-03T05:51:15.994Z,99404.47
2023-03-03T05:51:47.847Z,99405.22
2023-03-03T05:52:19.574Z,99408.63
2023-03-03T05:52:52.643Z,99402.38
2023-03-03T05:53:24.400Z,99410.19
2023-03-03T05:53:56.666Z,99403.97
2023-03-03T05:54:28.863Z,99408.22
2023-03-03T05:55:00.633Z,99408.22
2023-03-03T05:55:32.648Z,99406.69
2023-03-03T05:56:04.723Z,99407.59
2023-03-03T05:56:36.558Z,99410.97
2023-03-03T05:57:08.386Z,99409.25
2023-03-03T05:57:40.852Z,99399.56
2023-03-03T05:58:12.835Z,99408.47
2023-03-03T05:58:44.933Z,99412.00
2023-03-03T05:59:16.812Z,99411.09
2023-03-03T05:59:49.672Z,99406.63
2023-03-03T06:00:22.115Z,99414.38
2023-03-03T06:00:54.080Z,99399.47
2023-03-03T06:01:27.064Z,99396.94
2023-03-03T06:01:59.000Z,99408.97
2023-03-03T06:02:31.043Z,99410.00
2023-03-03T06:03:02.861Z,99406.47
2023-03-03T06:03:34.727Z,99408.94
2023-03-03T06:04:06.545Z,99403.69
2023-03-03T06:04:38.341Z,99404.53
2023-03-03T06:05:10.686Z,99414.22
2023-03-03T06:05:42.520Z,99410.59
2023-03-03T06:06:17.084Z,99413.84
2023-03-03T06:06:48.823Z,99405.28
2023-03-03T06:07:20.851Z,99414.78
2023-03-03T06:07:52.709Z,99413.06
2023-03-03T06:08:24.757Z,99407.03
2023-03-03T06:08:57.335Z,99411.22
2023-03-03T06:09:29.479Z,99417.34
2023-03-03T06:10:01.543Z,99415.84
2023-03-03T06:10:33.381Z,99416.50
2023-03-03T06:11:05.445Z,99419.94
2023-03-03T06:11:37.718Z,99420.56
2023-03-03T06:12:09.475Z,99420.41
2023-03-03T06:12:42.281Z,99424.78
2023-03-03T06:13:14.166Z,99416.97
2023-03-03T06:13:46.029Z,99426.88
2023-03-03T06:14:17.803Z,99426.66
2023-03-03T06:14:49.521Z,99424.94
2023-03-03T06:15:24.238Z,99427.47
2023-03-03T06:15:56.054Z,99423.16
2023-03-03T06:16:28.037Z,99426.66
2023-03-03T06:16:59.817Z,99424.03
2023-03-03T06:17:31.534Z,99419.66
2023-03-03T06:18:03.577Z,99421.56
2023-03-03T06:18:35.319Z,99414.59
2023-03-03T06:19:07.113Z,99420.53
2023-03-03T06:19:39.089Z,99419.59
2023-03-03T06:20:11.505Z,99427.31
2023-03-03T06:20:43.330Z,99427.41
2023-03-03T06:21:15.229Z,99421.16
2023-03-03T06:21:47.023Z,99423.78
2023-03-03T06:22:18.873Z,99423.78
2023-03-03T06:22:50.680Z,99421.13
2023-03-03T06:23:22.622Z,99417.66
2023-03-03T06:23:54.571Z,99424.59
2023-03-03T06:24:30.313Z,99418.28
2023-03-03T06:25:02.243Z,99421.78
2023-03-03T06:25:35.858Z,99420.91
2023-03-03T06:26:08.040Z,99424.38
2023-03-03T06:26:39.964Z,99422.06
2023-03-03T06:27:11.793Z,99425.53
2023-03-03T06:27:43.684Z,99425.53
2023-03-03T06:28:15.694Z,99426.19
2023-03-03T06:28:48.367Z,99423.47
2023-03-03T06:29:20.128Z,99422.66
2023-03-03T06:29:51.913Z,99425.34
2023-03-03T06:30:23.861Z,99426.47
2023-03-03T06:30:56.661Z,99429.97
2023-03-03T06:31:28.606Z,99428.66
2023-03-03T06:32:00.478Z,99434.00
2023-03-03T06:32:32.447Z,99425.34
2023-03-03T06:33:04.600Z,99421.22
2023-03-03T06:33:37.544Z,99431.63
2023-03-03T06:34:09.329Z,99434.13
2023-03-03T06:34:41.200Z,99436.63
2023-03-03T06:35:13.057Z,99438.06
2023-03-03T06:35:44.886Z,99434.66
2023-03-03T06:36:16.692Z,99434.03
2023-03-03T06:36:49.568Z,99432.16
2023-03-03T06:37:21.300Z,99433.84
2023-03-03T06:37:53.240Z,99423.38